Time;durP1;ratioP1;P1;durP2;ratioP2;P2;SDS_P1;SDS_P2;PMS_P1;PMS_P2;Temp;Humidity;BMP_temperature;BMP_pressure;BME280_temperature;BME280_humidity;BME280_pressure;Samples;Min_cycle;Max_cycle;Signal;HPM_P1;HPM_P2
2022/03/12 00:01:44;;;;;;;9.65;5.00;;;8.10;56.10;;;;;;5018410;28;20060;-56
2022/03/12 00:04:10;;;;;;;10.23;5.57;;;8.10;55.80;;;;;;5013400;28;20450;-56
2022/03/12 00:06:35;;;;;;;9.38;5.38;;;8.00;57.60;;;;;;5013172;28;20029;-53
2022/03/12 00:09:02;;;;;;;11.43;5.53;;;8.00;57.40;;;;;;5029017;28;20989;-58
2022/03/12 00:11:40;;;;;;;10.68;4.53;;;8.00;55.90;;;;;;5007598;28;20050;-58
2022/03/12 00:14:07;;;;;;;10.82;5.13;;;8.00;55.90;;;;;;5030757;28;20040;-55
2022/03/12 00:16:33;;;;;;;9.45;5.45;;;8.00;56.40;;;;;;5041104;28;20399;-59
2022/03/12 00:19:02;;;;;;;9.20;5.25;;;8.00;55.60;;;;;;5017547;28;20034;-56
2022/03/12 00:21:30;;;;;;;14.40;5.22;;;8.10;56.20;;;;;;5017142;28;20164;-60
2022/03/12 00:23:58;;;;;;;10.40;5.88;;;8.10;56.40;;;;;;5029502;28;20395;-59
2022/03/12 00:26:24;;;;;;;10.50;5.68;;;8.00;57.40;;;;;;5025501;28;20030;-59
2022/03/12 00:28:52;;;;;;;12.43;5.15;;;8.00;57.20;;;;;;5029484;28;20034;-55
2022/03/12 00:31:18;;;;;;;9.50;4.85;;;8.00;56.60;;;;;;5029536;28;20483;-58
2022/03/12 00:33:44;;;;;;;8.15;5.03;;;8.00;56.60;;;;;;5015476;28;20554;-55
2022/03/12 00:36:09;;;;;;;13.27;4.72;;;8.00;56.00;;;;;;5013707;28;20034;-56
2022/03/12 00:38:35;;;;;;;8.32;4.88;;;8.00;56.70;;;;;;5020483;28;20018;-58
2022/03/12 00:41:02;;;;;;;8.43;4.35;;;8.10;56.40;;;;;;5015951;28;20376;-57
2022/03/12 00:43:28;;;;;;;8.30;5.47;;;8.10;56.30;;;;;;5023966;28;20494;-58
2022/03/12 00:45:54;;;;;;;9.77;4.75;;;8.10;56.60;;;;;;5011561;28;20036;-59
2022/03/12 00:48:19;;;;;;;11.23;5.40;;;8.10;56.50;;;;;;5014186;28;20034;-58
2022/03/12 00:50:45;;;;;;;11.40;5.35;;;8.10;56.30;;;;;;5013055;28;20076;-62
2022/03/12 00:53:11;;;;;;;10.75;5.13;;;8.10;56.50;;;;;;5024294;28;20487;-58
2022/03/12 00:55:36;;;;;;;9.60;5.28;;;8.10;56.40;;;;;;5014888;28;20044;-57
2022/03/12 00:58:02;;;;;;;12.48;5.63;;;8.10;56.70;;;;;;5022229;28;20047;-54
2022/03/12 01:00:28;;;;;;;10.60;5.68;;;8.10;56.50;;;;;;5014041;28;20036;-56
2022/03/12 01:02:54;;;;;;;10.57;5.53;;;8.10;56.50;;;;;;5015134;28;20026;-57
2022/03/12 01:05:39;;;;;;;10.68;4.75;;;8.00;57.00;;;;;;5024291;28;20032;-56
2022/03/12 01:08:05;;;;;;;9.00;5.10;;;8.00;57.40;;;;;;5028753;28;20033;-57
2022/03/12 01:10:31;;;;;;;9.10;5.10;;;7.90;57.00;;;;;;5012179;28;20161;-56
2022/03/12 01:12:56;;;;;;;13.23;5.00;;;8.00;57.20;;;;;;5020393;28;20631;-54
2022/03/12 01:15:22;;;;;;;12.70;5.10;;;8.00;57.60;;;;;;5023630;28;20033;-58
2022/03/12 01:17:47;;;;;;;11.40;5.47;;;7.90;57.70;;;;;;5026628;28;20045;-54
2022/03/12 01:20:13;;;;;;;8.45;4.95;;;7.90;58.30;;;;;;5025724;28;20387;-56
2022/03/12 01:22:39;;;;;;;11.18;5.43;;;7.80;58.20;;;;;;5017363;28;20041;-53
2022/03/12 01:25:07;;;;;;;9.27;5.45;;;7.80;57.80;;;;;;5017949;28;20029;-57
2022/03/12 01:27:33;;;;;;;10.73;5.65;;;7.80;57.90;;;;;;5015073;28;20041;-56
2022/03/12 01:29:59;;;;;;;10.90;5.13;;;7.80;58.30;;;;;;5022861;28;20091;-58
2022/03/12 01:32:25;;;;;;;10.68;5.28;;;7.80;57.90;;;;;;5016116;28;20045;-58
2022/03/12 01:34:51;;;;;;;9.95;5.63;;;7.80;58.50;;;;;;5018174;28;20785;-59
2022/03/12 01:37:19;;;;;;;9.95;5.20;;;7.80;58.50;;;;;;5013793;28;20040;-59
2022/03/12 01:39:47;;;;;;;8.40;4.80;;;7.80;58.10;;;;;;5010875;28;20546;-59
2022/03/12 01:42:14;;;;;;;12.00;5.97;;;7.80;57.70;;;;;;5018683;28;20037;-55
2022/03/12 01:44:41;;;;;;;8.88;4.68;;;7.80;58.70;;;;;;5018423;28;20026;-57
2022/03/12 01:47:09;;;;;;;10.80;5.70;;;7.80;58.30;;;;;;5028253;28;20483;-56
2022/03/12 01:49:35;;;;;;;13.02;5.70;;;7.80;57.90;;;;;;5029143;28;20037;-57
2022/03/12 01:52:00;;;;;;;10.75;4.78;;;7.80;58.10;;;;;;5025594;28;20029;-58
2022/03/12 01:54:27;;;;;;;10.10;5.03;;;7.80;58.20;;;;;;5025528;28;20041;-59
2022/03/12 01:56:55;;;;;;;8.18;4.78;;;7.80;58.70;;;;;;5027603;28;20037;-57
2022/03/12 01:59:21;;;;;;;9.52;4.65;;;7.70;58.40;;;;;;5015252;28;20026;-56
2022/03/12 02:01:51;;;;;;;12.18;5.97;;;7.70;58.30;;;;;;5020165;28;20549;-59
2022/03/12 02:04:17;;;;;;;9.75;4.53;;;7.70;58.90;;;;;;5018789;28;20492;-56
2022/03/12 02:06:43;;;;;;;12.48;6.72;;;7.70;58.70;;;;;;5012305;28;20037;-58
2022/03/12 02:09:14;;;;;;;12.25;4.75;;;7.70;58.60;;;;;;5027777;28;20081;-60
2022/03/12 02:11:41;;;;;;;12.48;5.85;;;7.70;58.70;;;;;;5010608;28;20396;-57
2022/03/12 02:14:15;;;;;;;10.27;5.47;;;7.70;58.50;;;;;;5021745;28;20129;-60
2022/03/12 02:16:47;;;;;;;9.35;5.22;;;7.70;58.00;;;;;;5027339;28;20041;-57
2022/03/12 02:19:12;;;;;;;11.27;5.60;;;7.70;58.00;;;;;;5028161;28;20430;-56
2022/03/12 02:21:49;;;;;;;11.30;5.93;;;7.70;58.30;;;;;;5023588;28;20086;-59
2022/03/12 02:24:16;;;;;;;9.30;4.82;;;7.70;59.10;;;;;;5023931;28;20403;-55
2022/03/12 02:26:44;;;;;;;9.40;5.53;;;7.70;59.20;;;;;;5028795;28;20029;-57
2022/03/12 02:29:12;;;;;;;12.68;5.07;;;7.60;58.00;;;;;;5015493;28;20065;-58
2022/03/12 02:31:40;;;;;;;9.10;5.15;;;7.70;58.20;;;;;;5010010;28;20064;-57
2022/03/12 02:34:07;;;;;;;9.30;4.55;;;7.70;59.70;;;;;;5029300;28;20033;-57
2022/03/12 02:36:32;;;;;;;9.55;5.57;;;7.60;59.10;;;;;;5027440;28;20059;-56
2022/03/12 02:38:59;;;;;;;10.02;5.25;;;7.60;59.40;;;;;;5028716;28;20441;-59
2022/03/12 02:41:25;;;;;;;9.23;5.32;;;7.60;59.80;;;;;;5020892;28;20053;-58
2022/03/12 02:43:51;;;;;;;9.88;4.88;;;7.60;59.20;;;;;;5025899;28;20652;-57
2022/03/12 02:46:17;;;;;;;10.23;5.93;;;7.60;59.80;;;;;;5029989;28;20026;-58
2022/03/12 02:48:50;;;;;;;13.95;5.22;;;7.60;59.40;;;;;;5027722;28;20029;-58
2022/03/12 02:51:16;;;;;;;9.43;5.03;;;7.60;59.80;;;;;;5028235;28;20536;-56
2022/03/12 02:53:43;;;;;;;11.90;5.10;;;7.60;59.70;;;;;;5026563;28;20030;-53
2022/03/12 02:56:09;;;;;;;11.30;4.85;;;7.50;60.10;;;;;;5027032;28;20079;-58
2022/03/12 02:58:34;;;;;;;11.98;5.38;;;7.50;60.50;;;;;;5027535;28;20036;-58
2022/03/12 03:01:03;;;;;;;9.80;5.22;;;7.40;60.60;;;;;;5025203;28;20037;-54
2022/03/12 03:03:32;;;;;;;9.50;4.93;;;7.40;60.90;;;;;;5019971;28;20455;-57
2022/03/12 03:05:58;;;;;;;10.88;5.20;;;7.40;61.00;;;;;;5032393;28;20827;-57
2022/03/12 03:08:24;;;;;;;10.35;4.82;;;7.40;60.70;;;;;;5022506;28;20030;-57
2022/03/12 03:10:52;;;;;;;12.32;5.30;;;7.40;60.50;;;;;;5011915;28;20042;-58
2022/03/12 03:13:18;;;;;;;16.80;5.68;;;7.40;61.20;;;;;;5026331;28;20219;-57
2022/03/12 03:15:47;;;;;;;10.52;5.68;;;7.40;61.10;;;;;;5032743;28;20099;-58
2022/03/12 03:18:15;;;;;;;11.48;4.78;;;7.40;60.40;;;;;;5030433;28;20079;-59
2022/03/12 03:20:41;;;;;;;8.70;4.60;;;7.40;60.40;;;;;;5032710;28;20160;-59
2022/03/12 03:23:11;;;;;;;11.48;5.60;;;7.40;60.10;;;;;;5029964;28;20034;-59
2022/03/12 03:25:37;;;;;;;12.15;4.78;;;7.40;60.20;;;;;;5028165;28;20450;-56
2022/03/12 03:28:05;;;;;;;10.13;5.43;;;7.40;61.30;;;;;;5029956;28;20029;-57
2022/03/12 03:30:34;;;;;;;10.18;5.97;;;7.40;60.80;;;;;;5013545;28;20117;-59
2022/03/12 03:33:00;;;;;;;12.57;5.35;;;7.40;61.20;;;;;;5020408;28;20491;-58
2022/03/12 03:35:26;;;;;;;12.15;6.10;;;7.40;60.60;;;;;;5023044;28;20044;-57
2022/03/12 03:37:51;;;;;;;8.38;5.18;;;7.40;61.50;;;;;;5030014;28;20395;-57
2022/03/12 03:40:17;;;;;;;12.63;5.07;;;7.40;63.00;;;;;;5031240;28;20095;-57
2022/03/12 03:42:42;;;;;;;11.60;5.60;;;7.40;62.00;;;;;;5030578;28;20032;-55
2022/03/12 03:45:08;;;;;;;11.50;5.75;;;7.40;62.20;;;;;;5031983;28;20038;-56
2022/03/12 03:47:33;;;;;;;12.00;5.70;;;7.40;62.50;;;;;;5032129;28;20033;-59
2022/03/12 03:49:59;;;;;;;12.52;5.40;;;7.40;61.70;;;;;;5021434;28;20033;-57
2022/03/12 03:52:25;;;;;;;16.15;5.75;;;7.40;62.70;;;;;;5029446;28;20044;-56
2022/03/12 03:54:50;;;;;;;8.55;5.05;;;7.30;63.10;;;;;;5017789;28;20033;-55
2022/03/12 03:57:17;;;;;;;12.40;5.60;;;7.30;62.20;;;;;;5022489;28;20044;-58
2022/03/12 03:59:43;;;;;;;12.27;5.40;;;7.30;62.30;;;;;;5020025;28;20399;-56
2022/03/12 04:02:08;;;;;;;12.82;5.15;;;7.20;62.30;;;;;;5030560;28;20033;-57
2022/03/12 04:04:38;;;;;;;11.00;6.03;;;7.20;62.30;;;;;;5031111;28;20025;-53
2022/03/12 04:07:05;;;;;;;10.07;5.00;;;7.20;63.10;;;;;;5030156;28;20033;-59
2022/03/12 04:09:31;;;;;;;13.02;6.18;;;7.20;62.50;;;;;;5031424;28;20034;-58
2022/03/12 04:11:56;;;;;;;6.82;4.95;;;7.10;62.70;;;;;;5001492;28;20053;-57
2022/03/12 04:14:22;;;;;;;9.65;5.80;;;7.20;63.10;;;;;;5030480;28;20045;-57
2022/03/12 04:16:47;;;;;;;9.23;5.18;;;7.10;62.80;;;;;;5031471;28;20033;-56
2022/03/12 04:19:14;;;;;;;8.45;5.15;;;7.10;62.40;;;;;;5030874;28;20033;-58
2022/03/12 04:21:40;;;;;;;12.38;5.97;;;7.10;63.20;;;;;;5028244;28;20076;-57
2022/03/12 04:24:06;;;;;;;13.02;4.90;;;7.10;63.30;;;;;;5030716;28;20041;-58
2022/03/12 04:26:35;;;;;;;10.13;5.05;;;7.10;62.50;;;;;;5030830;28;20040;-59
2022/03/12 04:29:04;;;;;;;13.00;5.63;;;7.10;62.40;;;;;;5022844;28;20032;-55
2022/03/12 04:31:30;;;;;;;9.90;6.13;;;7.10;62.40;;;;;;5012007;28;20456;-58
2022/03/12 04:33:56;;;;;;;11.70;5.55;;;7.10;63.30;;;;;;5030137;28;20087;-59
2022/03/12 04:36:22;;;;;;;10.10;4.80;;;7.10;63.40;;;;;;5030221;28;20368;-57
2022/03/12 04:38:48;;;;;;;11.40;4.97;;;7.10;63.50;;;;;;5016960;28;20055;-56
2022/03/12 04:41:16;;;;;;;9.82;5.43;;;7.10;64.40;;;;;;5027614;28;20021;-57
2022/03/12 04:43:42;;;;;;;15.98;5.80;;;7.10;64.10;;;;;;5030634;28;20027;-54
2022/03/12 04:46:08;;;;;;;10.10;5.63;;;7.10;63.80;;;;;;5028213;28;20223;-59
2022/03/12 04:48:33;;;;;;;11.45;5.90;;;7.10;64.50;;;;;;5030231;28;20099;-58
2022/03/12 04:50:59;;;;;;;9.98;5.35;;;7.10;64.50;;;;;;5031286;28;20099;-56
2022/03/12 04:53:26;;;;;;;11.70;5.63;;;7.00;64.40;;;;;;5018732;28;20018;-57
2022/03/12 04:55:52;;;;;;;12.55;6.93;;;7.10;64.40;;;;;;5027190;28;20029;-58
2022/03/12 04:58:19;;;;;;;10.93;6.22;;;7.10;65.00;;;;;;5025733;28;20063;-57
2022/03/12 05:00:45;;;;;;;13.32;5.72;;;7.10;65.70;;;;;;5030311;28;20499;-59
2022/03/12 05:03:13;;;;;;;12.30;5.45;;;7.00;65.30;;;;;;5019125;28;20479;-58
2022/03/12 05:05:40;;;;;;;9.07;5.38;;;7.00;65.10;;;;;;5027984;28;20036;-56
2022/03/12 05:08:16;;;;;;;16.63;6.40;;;7.00;66.10;;;;;;5026022;28;20466;-60
2022/03/12 05:10:44;;;;;;;9.65;5.25;;;6.90;65.50;;;;;;5020314;28;20033;-55
2022/03/12 05:13:12;;;;;;;9.40;5.10;;;6.90;65.90;;;;;;5009562;28;20060;-57
2022/03/12 05:15:38;;;;;;;16.73;5.05;;;6.90;66.30;;;;;;5029910;28;20067;-57
2022/03/12 05:18:11;;;;;;;11.55;5.93;;;6.80;67.00;;;;;;5044936;28;20029;-58
2022/03/12 05:20:38;;;;;;;13.07;5.65;;;6.70;67.50;;;;;;5030359;28;20368;-57
2022/03/12 05:23:07;;;;;;;13.63;6.00;;;6.70;67.40;;;;;;5025951;28;20112;-56
2022/03/12 05:25:34;;;;;;;11.25;5.60;;;6.60;68.60;;;;;;5016050;28;20541;-58
2022/03/12 05:28:00;;;;;;;12.93;5.53;;;6.50;69.20;;;;;;5030238;28;20067;-58
2022/03/12 05:30:27;;;;;;;10.35;5.75;;;6.40;69.20;;;;;;5030494;28;20033;-54
2022/03/12 05:32:53;;;;;;;17.10;7.05;;;6.30;69.70;;;;;;5022887;28;20072;-57
2022/03/12 05:35:20;;;;;;;10.63;5.43;;;6.30;69.80;;;;;;5012309;28;20431;-57
2022/03/12 05:37:47;;;;;;;11.27;5.78;;;6.20;70.00;;;;;;5044632;28;20029;-57
2022/03/12 05:40:17;;;;;;;9.68;6.05;;;6.20;70.60;;;;;;5021831;28;20468;-58
2022/03/12 05:42:43;;;;;;;11.77;5.53;;;6.20;70.60;;;;;;5021316;28;20398;-54
2022/03/12 05:45:09;;;;;;;10.05;5.30;;;6.10;71.70;;;;;;5030261;28;20032;-55
2022/03/12 05:47:42;;;;;;;10.95;6.35;;;6.00;71.30;;;;;;5028520;28;20045;-56
2022/03/12 05:50:10;;;;;;;10.27;5.22;;;5.90;72.50;;;;;;5029861;28;20052;-57
2022/03/12 05:52:40;;;;;;;10.63;6.10;;;5.80;72.40;;;;;;5028292;28;20021;-57
2022/03/12 05:55:08;;;;;;;13.27;5.20;;;5.80;73.00;;;;;;5021079;28;20026;-57
2022/03/12 05:57:34;;;;;;;15.13;5.93;;;5.80;73.10;;;;;;5029121;28;20545;-53
2022/03/12 06:00:02;;;;;;;13.00;5.35;;;5.80;72.80;;;;;;5029461;28;20025;-56
2022/03/12 06:02:28;;;;;;;8.10;4.93;;;5.80;72.40;;;;;;5027162;28;20488;-59
2022/03/12 06:04:54;;;;;;;15.77;6.47;;;5.90;72.50;;;;;;5011966;28;20483;-56
2022/03/12 06:07:24;;;;;;;12.65;5.65;;;5.90;72.70;;;;;;5025550;28;20036;-59
2022/03/12 06:09:50;;;;;;;10.30;5.72;;;6.00;72.90;;;;;;5029146;28;20082;-57
2022/03/12 06:12:17;;;;;;;12.55;6.13;;;6.00;73.20;;;;;;5021273;28;20049;-56
2022/03/12 06:14:43;;;;;;;11.43;6.00;;;6.00;73.30;;;;;;5022782;28;20033;-55
2022/03/12 06:17:08;;;;;;;14.90;6.18;;;6.00;73.20;;;;;;5028441;28;20049;-57
2022/03/12 06:19:34;;;;;;;9.85;5.32;;;6.00;74.20;;;;;;5016974;28;20022;-59
2022/03/12 06:22:00;;;;;;;11.70;5.65;;;6.00;73.90;;;;;;5023651;28;20029;-56
2022/03/12 06:24:26;;;;;;;15.65;5.57;;;6.10;73.50;;;;;;5028427;28;20025;-58
2022/03/12 06:26:51;;;;;;;12.02;4.88;;;6.20;73.50;;;;;;5025206;28;20022;-58
2022/03/12 06:29:17;;;;;;;13.25;5.32;;;6.20;73.60;;;;;;5029919;28;20033;-57
2022/03/12 06:31:43;;;;;;;11.35;5.53;;;6.30;73.80;;;;;;5030737;28;20487;-58
2022/03/12 06:34:12;;;;;;;12.98;5.45;;;6.30;74.60;;;;;;5031430;28;20037;-56
2022/03/12 06:36:39;;;;;;;16.90;6.18;;;6.40;74.60;;;;;;5030648;28;20038;-55
2022/03/12 06:39:06;;;;;;;14.23;5.63;;;6.40;74.90;;;;;;5031116;28;20100;-58
2022/03/12 06:41:35;;;;;;;10.60;5.70;;;6.50;74.30;;;;;;5033053;28;20039;-57
2022/03/12 06:44:01;;;;;;;9.93;5.97;;;6.60;74.30;;;;;;5014145;28;20022;-58
2022/03/12 06:46:28;;;;;;;10.50;6.45;;;6.70;74.20;;;;;;5029250;28;20076;-57
2022/03/12 06:48:53;;;;;;;13.55;6.20;;;6.80;74.50;;;;;;5031506;28;20035;-57
2022/03/12 06:51:19;;;;;;;10.30;5.60;;;6.90;74.20;;;;;;5032620;28;20030;-58
2022/03/12 06:53:45;;;;;;;13.93;5.85;;;7.10;73.50;;;;;;5030577;28;20025;-56
2022/03/12 06:56:11;;;;;;;10.93;5.80;;;7.30;73.50;;;;;;5025242;28;20145;-57
2022/03/12 06:58:37;;;;;;;10.38;5.55;;;7.50;73.80;;;;;;5028373;28;20533;-55
2022/03/12 07:01:03;;;;;;;11.82;5.30;;;8.00;73.10;;;;;;5032545;28;20037;-57
2022/03/12 07:03:29;;;;;;;14.50;5.95;;;8.50;72.90;;;;;;5026843;28;20060;-59
2022/03/12 07:05:54;;;;;;;10.18;5.78;;;9.00;70.90;;;;;;5031859;28;20026;-57
2022/03/12 07:08:21;;;;;;;14.88;6.40;;;9.20;70.30;;;;;;5030930;28;20033;-57
2022/03/12 07:10:48;;;;;;;18.98;6.20;;;9.20;70.10;;;;;;5019817;28;20049;-57
2022/03/12 07:13:14;;;;;;;9.48;5.45;;;9.70;68.60;;;;;;5007486;28;20046;-56
2022/03/12 07:15:40;;;;;;;10.52;5.20;;;9.70;68.20;;;;;;5026498;28;20022;-56
2022/03/12 07:18:06;;;;;;;10.88;5.88;;;9.70;67.80;;;;;;5019056;28;20068;-59
2022/03/12 07:20:32;;;;;;;9.95;5.45;;;9.50;69.30;;;;;;5029518;28;20042;-56
2022/03/12 07:22:57;;;;;;;10.98;6.18;;;9.30;69.00;;;;;;5021857;28;20030;-56
2022/03/12 07:25:25;;;;;;;9.25;5.70;;;9.10;70.10;;;;;;5021698;28;20029;-58
2022/03/12 07:27:52;;;;;;;14.48;5.47;;;9.00;71.00;;;;;;5024624;28;20021;-57
2022/03/12 07:30:18;;;;;;;10.35;5.72;;;8.80;72.10;;;;;;5013431;28;20519;-57
2022/03/12 07:32:45;;;;;;;11.45;5.60;;;8.70;72.20;;;;;;5022187;28;20029;-59
2022/03/12 07:35:12;;;;;;;10.98;5.95;;;8.80;73.70;;;;;;5031185;28;20038;-56
2022/03/12 07:37:39;;;;;;;12.98;6.65;;;8.80;73.40;;;;;;5021083;28;20032;-55
2022/03/12 07:40:05;;;;;;;11.77;5.90;;;9.00;74.40;;;;;;5031435;28;20115;-59
2022/03/12 07:42:31;;;;;;;11.95;5.75;;;9.00;74.60;;;;;;5021087;28;20033;-57
2022/03/12 07:44:56;;;;;;;9.48;6.15;;;9.10;74.50;;;;;;5020828;28;20113;-54
2022/03/12 07:47:22;;;;;;;11.65;6.18;;;9.20;74.90;;;;;;5019191;28;20056;-56
2022/03/12 07:49:47;;;;;;;10.52;6.13;;;9.40;75.00;;;;;;5031493;28;20056;-59
2022/03/12 07:52:13;;;;;;;10.45;6.20;;;9.40;75.80;;;;;;5028979;28;20053;-54
2022/03/12 07:54:39;;;;;;;11.48;6.63;;;9.60;75.20;;;;;;5028191;28;20037;-56
2022/03/12 07:57:05;;;;;;;10.70;6.00;;;9.70;75.20;;;;;;5018761;28;20592;-55
2022/03/12 07:59:31;;;;;;;10.07;5.93;;;9.80;74.60;;;;;;5019556;28;20038;-59
2022/03/12 08:01:58;;;;;;;10.00;5.82;;;9.60;75.00;;;;;;5013167;28;20041;-59
2022/03/12 08:04:24;;;;;;;15.82;7.18;;;9.70;76.20;;;;;;5021408;28;20025;-59
2022/03/12 08:06:50;;;;;;;12.40;6.50;;;9.70;77.00;;;;;;5030065;28;21172;-58
2022/03/12 08:09:15;;;;;;;9.25;5.88;;;9.70;76.50;;;;;;5013965;28;20084;-59
2022/03/12 08:11:41;;;;;;;9.77;5.93;;;9.80;77.00;;;;;;5004946;28;20385;-57
2022/03/12 08:14:15;;;;;;;9.93;5.57;;;9.90;77.00;;;;;;5029927;28;20055;-58
2022/03/12 08:16:41;;;;;;;12.05;5.63;;;10.00;77.20;;;;;;5023717;28;20038;-60
2022/03/12 08:19:08;;;;;;;9.27;5.55;;;10.10;75.50;;;;;;5024819;28;20549;-60
2022/03/12 08:21:35;;;;;;;11.50;6.75;;;10.10;76.30;;;;;;5026603;28;20033;-58
2022/03/12 08:24:02;;;;;;;11.02;5.85;;;10.00;76.60;;;;;;5026577;28;20108;-58
2022/03/12 08:26:28;;;;;;;8.40;5.63;;;10.00;77.40;;;;;;5030433;28;20032;-60
2022/03/12 08:28:54;;;;;;;11.90;6.18;;;10.20;78.00;;;;;;5020707;28;20423;-58
2022/03/12 08:31:20;;;;;;;10.75;6.20;;;10.40;78.00;;;;;;5011614;28;20022;-59
2022/03/12 08:33:46;;;;;;;11.00;6.93;;;10.50;77.70;;;;;;5024435;28;20025;-58
2022/03/12 08:36:11;;;;;;;12.77;6.03;;;10.60;78.30;;;;;;5014685;28;20152;-57
2022/03/12 08:38:38;;;;;;;11.85;5.22;;;10.60;78.30;;;;;;5027183;28;20483;-58
2022/03/12 08:41:08;;;;;;;9.73;5.75;;;10.70;79.20;;;;;;5013160;28;20395;-57
2022/03/12 08:43:35;;;;;;;11.75;6.85;;;10.80;79.40;;;;;;5012333;28;20052;-57
2022/03/12 08:46:02;;;;;;;12.23;5.32;;;10.90;79.70;;;;;;5021629;28;20032;-60
2022/03/12 08:48:28;;;;;;;9.88;6.28;;;11.10;79.30;;;;;;5023703;28;20031;-56
2022/03/12 08:50:53;;;;;;;12.70;6.03;;;11.20;79.70;;;;;;5016009;28;20072;-54
2022/03/12 08:53:21;;;;;;;9.45;5.55;;;11.40;78.40;;;;;;5023869;28;20567;-59
2022/03/12 08:55:46;;;;;;;9.18;5.18;;;11.40;79.30;;;;;;5012077;28;20036;-53
2022/03/12 08:58:12;;;;;;;10.30;5.68;;;11.50;79.70;;;;;;5029826;28;20411;-58
2022/03/12 09:00:38;;;;;;;13.25;6.88;;;11.60;79.20;;;;;;5018998;28;20025;-60
2022/03/12 09:03:05;;;;;;;8.98;5.70;;;11.60;79.10;;;;;;5025847;28;20025;-58
2022/03/12 09:05:31;;;;;;;12.93;6.38;;;11.70;80.10;;;;;;5029689;28;20384;-58
2022/03/12 09:07:57;;;;;;;10.57;6.13;;;11.80;79.70;;;;;;5023202;28;20024;-59
2022/03/12 09:10:23;;;;;;;10.15;6.28;;;12.00;80.30;;;;;;5013351;28;20080;-59
2022/03/12 09:12:49;;;;;;;12.48;6.40;;;12.10;79.80;;;;;;5003833;28;20085;-59
2022/03/12 09:15:17;;;;;;;11.70;6.22;;;12.30;78.70;;;;;;5029689;28;20030;-59
2022/03/12 09:17:43;;;;;;;7.97;5.28;;;12.70;78.20;;;;;;5029140;28;20495;-59
2022/03/12 09:20:09;;;;;;;8.70;6.35;;;13.20;77.60;;;;;;5017039;28;20083;-59
2022/03/12 09:22:34;;;;;;;10.57;6.65;;;13.70;76.20;;;;;;5018928;28;20033;-60
2022/03/12 09:25:02;;;;;;;10.43;5.93;;;13.80;75.40;;;;;;5027429;28;20021;-60
2022/03/12 09:27:27;;;;;;;12.07;7.25;;;14.20;74.40;;;;;;5021799;28;20545;-58
2022/03/12 09:29:53;;;;;;;18.73;9.27;;;14.30;73.30;;;;;;5025379;28;20038;-61
2022/03/12 09:32:20;;;;;;;10.60;6.63;;;14.10;72.90;;;;;;5013958;28;20025;-59
2022/03/12 09:34:46;;;;;;;10.57;7.20;;;13.90;73.50;;;;;;5025848;28;20531;-61
2022/03/12 09:37:11;;;;;;;10.30;6.18;;;14.40;73.50;;;;;;5015274;28;20033;-60
2022/03/12 09:39:37;;;;;;;11.10;7.20;;;14.70;73.00;;;;;;5019753;28;20041;-57
2022/03/12 09:42:03;;;;;;;16.67;5.93;;;15.00;73.20;;;;;;5029596;28;20029;-60
2022/03/12 09:44:29;;;;;;;12.85;6.78;;;15.50;71.80;;;;;;5029444;28;20033;-59
2022/03/12 09:46:55;;;;;;;10.15;6.22;;;15.80;70.40;;;;;;5020238;28;20052;-61
2022/03/12 09:49:21;;;;;;;9.68;6.72;;;16.20;69.70;;;;;;5025430;28;20028;-58
2022/03/12 09:51:46;;;;;;;10.02;6.45;;;16.10;69.00;;;;;;5028056;28;20033;-60
2022/03/12 09:54:12;;;;;;;9.82;7.28;;;16.40;68.20;;;;;;5027081;28;20026;-60
2022/03/12 09:56:39;;;;;;;15.25;6.90;;;16.50;67.50;;;;;;5029902;28;20160;-59
2022/03/12 09:59:07;;;;;;;10.40;7.22;;;16.60;69.40;;;;;;5024938;28;20033;-57
2022/03/12 10:01:33;;;;;;;11.70;6.80;;;16.70;69.00;;;;;;5012353;28;20061;-59
2022/03/12 10:03:59;;;;;;;9.05;6.63;;;16.70;67.40;;;;;;5027178;28;20110;-60
2022/03/12 10:06:24;;;;;;;11.30;7.20;;;16.90;67.80;;;;;;5021468;28;20017;-60
2022/03/12 10:08:52;;;;;;;6.45;5.00;;;16.70;66.80;;;;;;5023494;28;20034;-60
2022/03/12 10:11:18;;;;;;;9.23;6.85;;;16.80;67.30;;;;;;5017353;28;20060;-61
2022/03/12 10:13:44;;;;;;;9.38;7.18;;;16.50;67.50;;;;;;5000815;28;20044;-57
2022/03/12 10:16:10;;;;;;;9.40;6.40;;;16.60;68.40;;;;;;5032366;28;20036;-58
2022/03/12 10:18:36;;;;;;;12.15;6.18;;;16.50;68.40;;;;;;5019277;28;20029;-57
2022/03/12 10:21:01;;;;;;;8.52;5.75;;;16.90;68.50;;;;;;5016829;28;20029;-58
2022/03/12 10:23:27;;;;;;;12.93;6.47;;;17.10;67.90;;;;;;5021716;28;20029;-58
2022/03/12 10:25:53;;;;;;;10.77;6.47;;;16.70;68.50;;;;;;5015654;28;20049;-59
2022/03/12 10:28:18;;;;;;;9.48;5.82;;;16.40;69.90;;;;;;5017217;28;20065;-59
2022/03/12 10:30:44;;;;;;;7.40;5.45;;;16.30;70.80;;;;;;5012674;28;20033;-55
2022/03/12 10:33:20;;;;;;;7.70;6.40;;;16.40;71.10;;;;;;5019563;28;20083;-60
2022/03/12 10:35:46;;;;;;;10.50;5.60;;;16.40;71.50;;;;;;5022036;28;20677;-55
2022/03/12 10:38:13;;;;;;;8.90;6.07;;;16.20;70.70;;;;;;5020252;28;20053;-59
2022/03/12 10:40:39;;;;;;;9.98;6.18;;;16.00;72.00;;;;;;5015038;28;20034;-57
2022/03/12 10:43:13;;;;;;;9.13;6.38;;;15.90;72.10;;;;;;5020308;28;20492;-56
2022/03/12 10:45:52;;;;;;;11.27;5.65;;;15.80;72.30;;;;;;5018589;28;20063;-58
2022/03/12 10:48:20;;;;;;;11.77;6.75;;;15.50;73.00;;;;;;5021398;28;20044;-59
2022/03/12 10:50:50;;;;;;;10.77;5.78;;;15.20;74.40;;;;;;5019359;28;20100;-58
2022/03/12 10:53:17;;;;;;;8.38;5.78;;;15.10;74.70;;;;;;5017090;28;20030;-60
2022/03/12 10:55:45;;;;;;;8.55;5.55;;;14.80;76.40;;;;;;5007825;28;20053;-57
2022/03/12 10:58:12;;;;;;;11.18;5.80;;;14.90;77.30;;;;;;5008590;28;20033;-57
2022/03/12 11:00:46;;;;;;;7.22;5.03;;;14.90;76.70;;;;;;5005700;28;20464;-58
2022/03/12 11:03:21;;;;;;;;;;;14.90;77.30;;;;;;5005289;28;20034;-60
2022/03/12 11:05:49;;;;;;;10.13;6.13;;;14.80;77.10;;;;;;5008711;28;19910;-58
2022/03/12 11:08:17;;;;;;;10.30;5.43;;;14.70;74.80;;;;;;5008479;28;20034;-58
2022/03/12 11:10:54;;;;;;;10.90;6.50;;;14.50;76.00;;;;;;5012446;28;20038;-57
2022/03/12 11:13:40;;;;;;;9.07;5.50;;;14.70;76.60;;;;;;4990036;28;20092;-58
2022/03/12 11:16:12;;;;;;;6.93;4.93;;;14.90;76.10;;;;;;5008735;28;20037;-58
2022/03/12 11:18:53;;;;;;;10.05;6.57;;;15.20;75.70;;;;;;5007965;28;20041;-57
2022/03/12 11:21:28;;;;;;;9.18;6.38;;;15.50;74.60;;;;;;5012266;28;20061;-57
2022/03/12 11:23:55;;;;;;;11.27;5.55;;;15.50;74.20;;;;;;5012126;28;20067;-58
2022/03/12 11:26:21;;;;;;;11.55;6.18;;;15.50;74.50;;;;;;5011995;28;20026;-59
2022/03/12 11:28:56;;;;;;;9.52;6.25;;;15.50;74.50;;;;;;5011325;28;20062;-54
2022/03/12 11:31:39;;;;;;;8.35;5.95;;;15.50;74.80;;;;;;5010232;28;20026;-53
2022/03/12 11:34:24;;;;;;;9.73;5.80;;;15.50;75.50;;;;;;5011480;28;20032;-58
2022/03/12 11:37:13;;;;;;;11.48;7.13;;;15.50;75.60;;;;;;5010136;28;20157;-59
2022/03/12 11:39:40;;;;;;;9.88;6.90;;;15.40;74.90;;;;;;5011442;28;20029;-56
2022/03/12 11:42:12;;;;;;;10.50;6.10;;;15.40;74.70;;;;;;5014024;28;20092;-57
2022/03/12 11:44:45;;;;;;;11.20;6.90;;;15.30;73.70;;;;;;5012291;28;20025;-58
2022/03/12 11:47:11;;;;;;;11.67;6.67;;;15.40;74.40;;;;;;5008745;28;20049;-55
2022/03/12 11:49:37;;;;;;;12.02;6.30;;;15.30;73.80;;;;;;5010411;28;20053;-57
2022/03/12 11:52:04;;;;;;;12.18;6.70;;;15.20;74.20;;;;;;5014038;28;20124;-57
2022/03/12 11:54:30;;;;;;;12.45;5.88;;;15.20;74.10;;;;;;5011064;28;20034;-56
2022/03/12 11:56:59;;;;;;;11.70;6.45;;;15.10;74.80;;;;;;5015764;28;20083;-58
2022/03/12 11:59:25;;;;;;;10.25;6.80;;;14.90;75.20;;;;;;5014656;28;20030;-58
2022/03/12 12:02:02;;;;;;;7.38;4.95;;;14.80;75.00;;;;;;5014404;28;20044;-57
2022/03/12 12:04:32;;;;;;;13.90;6.88;;;14.80;75.90;;;;;;5011276;28;20436;-58
2022/03/12 12:06:59;;;;;;;10.60;7.13;;;14.60;77.10;;;;;;5019640;28;21416;-59
2022/03/12 12:09:26;;;;;;;10.68;5.75;;;14.70;77.60;;;;;;5028599;28;20045;-57
2022/03/12 12:11:53;;;;;;;8.27;5.90;;;14.80;76.40;;;;;;5027423;28;20429;-54
2022/03/12 12:14:19;;;;;;;9.00;6.28;;;14.60;76.10;;;;;;5007893;28;20404;-57
2022/03/12 12:16:46;;;;;;;9.60;6.18;;;14.60;76.20;;;;;;5024858;28;20149;-57
2022/03/12 12:19:12;;;;;;;8.88;5.93;;;14.60;77.60;;;;;;5021759;28;20403;-58
2022/03/12 12:21:37;;;;;;;10.55;6.05;;;14.60;77.80;;;;;;5023930;28;20030;-57
2022/03/12 12:24:24;;;;;;;9.75;6.25;;;14.70;78.00;;;;;;5013053;28;20041;-56
2022/03/12 12:27:07;;;;;;;8.77;5.60;;;15.00;78.20;;;;;;5018532;28;20511;-56
2022/03/12 12:29:46;;;;;;;11.10;6.00;;;15.10;77.70;;;;;;5018015;28;20041;-56
2022/03/12 12:32:15;;;;;;;10.95;6.43;;;15.20;76.90;;;;;;5019006;28;20026;-56
2022/03/12 12:35:03;;;;;;;9.23;6.65;;;15.10;76.20;;;;;;5019283;28;20060;-55
2022/03/12 12:37:51;;;;;;;12.23;6.38;;;15.10;77.70;;;;;;5019300;28;20051;-58
2022/03/12 12:40:18;;;;;;;9.00;5.60;;;15.30;77.40;;;;;;5021769;28;20017;-59
2022/03/12 12:42:44;;;;;;;13.43;7.22;;;15.30;76.50;;;;;;5020060;28;20025;-60
2022/03/12 12:45:12;;;;;;;11.32;7.22;;;15.20;76.80;;;;;;5017123;28;20117;-58
2022/03/12 12:47:37;;;;;;;11.35;6.72;;;15.20;77.30;;;;;;5024698;28;20554;-60
2022/03/12 12:50:04;;;;;;;7.60;5.80;;;15.40;76.80;;;;;;5020622;28;20037;-58